CYNL

SPECI CYNL 191538Z AUTO 05004KT 9SM VV005 M24/M27 A2972 RMK AO1 PRESRR SLP144
SPECI
LOCATION
CYNL
DATE - TIME
191538Z
WIND
050 TRUE @ 4 KNOTS
VISIBILITY
9SM
RUNWAY VISUAL RANGE
NOT REPORTED
WEATHER
CLOUDINESS
TEMP / DEWPOINT
-24 ºC / -27 ºC
ALTIMETER
29.72 in. Hg
RECENT WEATHER
NOT REPORTED
WIND SHEAR
NOT REPORTED
REMARKS
RMK AO1 PRESRR SLP144
SEA LEVEL PRESSURE: hPa

CYNL

SPECI CYNL 191521Z AUTO 06003KT 9SM VV004 M24/M27 A2972 RMK AO1 PRESRR SLP143
SPECI
LOCATION
CYNL
DATE - TIME
191521Z
WIND
060 TRUE @ 3 KNOTS
VISIBILITY
9SM
RUNWAY VISUAL RANGE
NOT REPORTED
WEATHER
CLOUDINESS
TEMP / DEWPOINT
-24 ºC / -27 ºC
ALTIMETER
29.72 in. Hg
RECENT WEATHER
NOT REPORTED
WIND SHEAR
NOT REPORTED
REMARKS
RMK AO1 PRESRR SLP143
SEA LEVEL PRESSURE: hPa

CYNL

METAR CYNL 191500Z AUTO 05003KT 9SM OVC005 M24/M27 A2971 RMK AO1 PRESRR SLP139
METAR
LOCATION
CYNL
DATE - TIME
191500Z
WIND
050 TRUE @ 3 KNOTS
VISIBILITY
9SM
RUNWAY VISUAL RANGE
NOT REPORTED
WEATHER
CLOUDINESS
OVC005
TEMP / DEWPOINT
-24 ºC / -27 ºC
ALTIMETER
29.71 in. Hg
RECENT WEATHER
NOT REPORTED
WIND SHEAR
NOT REPORTED
REMARKS
RMK AO1 PRESRR SLP139
SEA LEVEL PRESSURE: hPa

Your time UTC time
 
 
Weather data provided by AXYS Technologies Inc., www.axystechnologies.com
 
Station History